Terminal Aerodrome Forecast
Issued by NWS

Home | Current Version | Previous Version | Text Only | Print | Product List | Glossary On
Versions: 1 2 3 4 5 6 7 8 9 10 11 12 13 14 15 16 17
490
FTUS43 KTOP 250655 AAA
TAFMHK
TAF AMD
KMHK 250655Z 2507/2606 34005KT P6SM -RA OVC013
     FM251000 33005KT 5SM -RA OVC006
     FM251900 01009KT 2SM -RA OVC006
     FM252300 01005KT P6SM SCT020=

USA.gov is the U.S. government's official web portal to all federal, state and local government web resources and services.